Time;durP1;ratioP1;P1;durP2;ratioP2;P2;SDS_P1;SDS_P2;PMS_P1;PMS_P2;Temp;Humidity;BMP_temperature;BMP_pressure;BME280_temperature;BME280_humidity;BME280_pressure;Samples;Min_cycle;Max_cycle;Signal;HPM_P1;HPM_P2
2023/11/18 00:01:00;;;;;;;11.38;9.48;;;5.40;99.90;;;;;;7394876;19;20011;-74
2023/11/18 00:03:33;;;;;;;14.40;10.00;;;5.40;99.90;;;;;;7395620;19;20015;-73
2023/11/18 00:06:03;;;;;;;12.65;10.25;;;5.40;99.90;;;;;;7396519;19;20035;-73
2023/11/18 00:08:33;;;;;;;12.75;10.20;;;5.20;99.90;;;;;;7394826;19;20055;-73
2023/11/18 00:11:03;;;;;;;12.52;9.55;;;5.10;99.90;;;;;;7396872;19;20011;-74
2023/11/18 00:13:33;;;;;;;13.95;11.88;;;5.20;99.90;;;;;;7395089;19;20007;-74
2023/11/18 00:16:04;;;;;;;14.77;11.65;;;5.10;99.90;;;;;;7392132;19;20011;-73
2023/11/18 00:18:36;;;;;;;13.60;11.30;;;5.00;99.90;;;;;;7396903;19;20007;-73
2023/11/18 00:21:08;;;;;;;14.43;10.80;;;5.00;99.90;;;;;;7399567;19;20011;-73
2023/11/18 00:23:38;;;;;;;16.13;10.55;;;4.90;99.90;;;;;;7395949;19;20367;-73
2023/11/18 00:26:10;;;;;;;13.85;10.55;;;4.80;99.90;;;;;;7396358;19;20021;-73
2023/11/18 00:28:40;;;;;;;15.13;10.95;;;4.80;99.90;;;;;;7401182;19;20452;-73
2023/11/18 00:31:10;;;;;;;16.17;10.73;;;4.70;99.90;;;;;;7401886;19;20490;-73
2023/11/18 00:33:43;;;;;;;14.25;11.55;;;4.70;99.90;;;;;;7401508;19;20039;-72
2023/11/18 00:36:13;;;;;;;14.32;10.70;;;4.60;99.90;;;;;;7402726;19;20027;-73
2023/11/18 00:38:43;;;;;;;14.70;10.30;;;4.50;99.90;;;;;;7402181;19;20491;-72
2023/11/18 00:41:14;;;;;;;15.07;10.82;;;4.60;99.90;;;;;;7401903;19;20018;-72
2023/11/18 00:43:44;;;;;;;14.57;10.77;;;4.50;99.90;;;;;;7401685;19;20479;-72
2023/11/18 00:46:14;;;;;;;14.48;10.52;;;4.60;99.90;;;;;;7401386;19;20366;-72
2023/11/18 00:48:47;;;;;;;14.07;10.00;;;4.60;99.90;;;;;;7402662;19;20035;-72
2023/11/18 00:51:18;;;;;;;13.82;10.07;;;4.60;99.90;;;;;;7401480;19;20010;-72
2023/11/18 00:53:54;;;;;;;14.90;9.90;;;4.60;99.90;;;;;;7401529;19;20018;-73
2023/11/18 00:56:25;;;;;;;11.68;8.93;;;4.70;99.90;;;;;;7401203;19;20011;-73
2023/11/18 00:58:55;;;;;;;11.93;8.82;;;4.70;99.90;;;;;;7400560;19;20372;-72
2023/11/18 01:01:25;;;;;;;12.40;9.15;;;4.80;99.90;;;;;;7397723;19;20014;-72
2023/11/18 01:03:59;;;;;;;10.43;8.38;;;4.80;99.90;;;;;;7401236;19;20482;-72
2023/11/18 01:06:29;;;;;;;11.95;8.80;;;4.80;99.90;;;;;;7399438;19;20475;-72
2023/11/18 01:09:00;;;;;;;11.13;8.77;;;4.80;99.90;;;;;;7400663;19;20022;-72
2023/11/18 01:11:30;;;;;;;11.85;9.05;;;4.90;99.90;;;;;;7398890;19;20039;-72
2023/11/18 01:14:01;;;;;;;10.63;8.18;;;4.90;99.90;;;;;;7400220;19;20078;-71
2023/11/18 01:16:32;;;;;;;11.50;8.65;;;4.90;99.90;;;;;;7399455;19;20018;-71
2023/11/18 01:19:08;;;;;;;14.13;8.57;;;5.00;99.90;;;;;;7401912;19;20015;-72
2023/11/18 01:21:39;;;;;;;12.73;8.15;;;5.00;99.90;;;;;;7400619;19;20066;-71
2023/11/18 01:24:09;;;;;;;13.77;7.85;;;4.90;99.90;;;;;;7399131;19;20010;-72
2023/11/18 01:26:39;;;;;;;9.48;8.05;;;5.00;99.90;;;;;;7401593;19;20010;-71
2023/11/18 01:29:09;;;;;;;9.65;7.38;;;5.00;99.90;;;;;;7401117;19;20402;-72
2023/11/18 01:31:40;;;;;;;11.38;8.45;;;5.00;99.90;;;;;;7398743;19;20089;-72
2023/11/18 01:34:25;;;;;;;13.05;7.63;;;5.00;99.90;;;;;;7396623;19;20057;-71
2023/11/18 01:36:56;;;;;;;9.95;7.85;;;5.10;99.90;;;;;;7398675;19;20046;-71
2023/11/18 01:39:27;;;;;;;12.10;8.40;;;5.10;99.90;;;;;;7399076;19;20019;-71
2023/11/18 01:41:59;;;;;;;10.20;7.80;;;5.20;99.90;;;;;;7400596;19;20021;-71
2023/11/18 01:44:33;;;;;;;10.10;7.45;;;5.20;99.90;;;;;;7396311;19;20019;-71
2023/11/18 01:47:05;;;;;;;9.77;7.35;;;5.20;99.90;;;;;;7399252;19;20018;-72
2023/11/18 01:49:40;;;;;;;9.73;7.05;;;5.30;99.90;;;;;;7398174;19;20487;-72
2023/11/18 01:52:12;;;;;;;9.25;6.80;;;5.30;99.90;;;;;;7399393;19;20018;-71
2023/11/18 01:54:44;;;;;;;8.65;6.88;;;5.40;99.90;;;;;;7396087;19;20025;-73
2023/11/18 01:57:16;;;;;;;9.10;7.50;;;5.40;99.90;;;;;;7401192;19;20025;-73
2023/11/18 01:59:47;;;;;;;7.63;6.03;;;5.50;99.90;;;;;;7398527;19;20025;-73
2023/11/18 02:02:17;;;;;;;8.82;7.15;;;5.40;99.90;;;;;;7399560;19;20014;-73
2023/11/18 02:04:49;;;;;;;8.63;7.05;;;5.40;99.90;;;;;;7393376;19;20030;-73
2023/11/18 02:07:20;;;;;;;10.85;7.15;;;5.40;99.90;;;;;;7394512;19;20014;-73
2023/11/18 02:09:51;;;;;;;8.73;6.47;;;5.40;99.90;;;;;;7394753;19;20022;-73
2023/11/18 02:12:28;;;;;;;9.13;7.28;;;5.40;99.90;;;;;;7394578;19;20018;-73
2023/11/18 02:15:00;;;;;;;8.52;6.95;;;5.40;99.90;;;;;;7392656;19;20460;-74
2023/11/18 02:17:31;;;;;;;7.95;7.15;;;5.50;99.90;;;;;;7394721;19;20093;-74
2023/11/18 02:20:06;;;;;;;8.88;7.28;;;5.50;99.90;;;;;;7396286;19;20018;-72
2023/11/18 02:22:36;;;;;;;9.05;7.28;;;5.50;99.90;;;;;;7393959;19;20010;-73
2023/11/18 02:25:10;;;;;;;11.95;6.93;;;5.50;99.90;;;;;;7393015;19;20010;-71
2023/11/18 02:27:43;;;;;;;9.05;6.95;;;5.50;99.90;;;;;;7394099;19;20355;-71
2023/11/18 02:30:16;;;;;;;8.45;6.88;;;5.60;99.90;;;;;;7393662;19;20018;-73
2023/11/18 02:32:53;;;;;;;9.77;7.03;;;5.60;99.90;;;;;;7393744;19;20011;-72
2023/11/18 02:35:29;;;;;;;8.77;6.85;;;5.60;99.90;;;;;;7391076;19;20042;-72
2023/11/18 02:38:02;;;;;;;11.02;6.78;;;5.50;99.90;;;;;;7393563;19;20018;-72
2023/11/18 02:40:38;;;;;;;8.65;7.07;;;5.50;99.90;;;;;;7393545;19;20007;-71
2023/11/18 02:43:13;;;;;;;8.13;6.80;;;5.50;99.90;;;;;;7394910;19;20015;-72
2023/11/18 02:45:46;;;;;;;8.13;7.07;;;5.40;99.90;;;;;;7391588;19;20015;-71
2023/11/18 02:48:18;;;;;;;7.63;6.43;;;5.30;99.90;;;;;;7393518;19;20070;-71
2023/11/18 02:50:48;;;;;;;10.18;8.40;;;5.30;99.90;;;;;;7394954;19;20015;-71
2023/11/18 02:53:18;;;;;;;9.80;7.53;;;5.20;99.90;;;;;;7394101;19;20014;-73
2023/11/18 02:55:51;;;;;;;9.68;6.32;;;5.30;99.90;;;;;;7394224;19;20082;-72
2023/11/18 02:58:24;;;;;;;10.00;7.28;;;5.30;99.90;;;;;;7397110;19;20026;-73
2023/11/18 03:00:54;;;;;;;10.10;7.00;;;5.30;99.90;;;;;;7394482;19;20021;-72
2023/11/18 03:03:25;;;;;;;9.73;7.30;;;5.30;99.90;;;;;;7394453;19;20010;-71
2023/11/18 03:05:55;;;;;;;8.77;6.18;;;5.30;99.90;;;;;;7392206;19;20486;-71
2023/11/18 03:08:28;;;;;;;8.57;6.60;;;5.40;99.90;;;;;;7392484;19;20027;-72
2023/11/18 03:10:58;;;;;;;8.45;6.50;;;5.40;99.90;;;;;;7392079;19;20015;-71
2023/11/18 03:13:32;;;;;;;8.02;6.15;;;5.40;99.90;;;;;;7392162;19;20086;-71
2023/11/18 03:16:04;;;;;;;8.07;6.38;;;5.40;99.90;;;;;;7392698;19;20052;-72
2023/11/18 03:18:34;;;;;;;9.10;6.10;;;5.40;99.90;;;;;;7392175;19;20030;-73
2023/11/18 03:21:06;;;;;;;8.90;5.78;;;5.40;99.90;;;;;;7392039;19;20022;-72
2023/11/18 03:23:36;;;;;;;7.40;6.18;;;5.40;99.90;;;;;;7393437;19;20022;-71
2023/11/18 03:26:07;;;;;;;8.63;6.75;;;5.30;99.90;;;;;;7394723;19;20019;-71
2023/11/18 03:28:40;;;;;;;7.90;6.40;;;5.30;99.90;;;;;;7391808;19;20018;-71
2023/11/18 03:31:11;;;;;;;8.20;5.55;;;5.30;99.90;;;;;;7393425;19;20022;-72
2023/11/18 03:33:41;;;;;;;7.68;6.18;;;5.30;99.90;;;;;;7391229;19;20403;-71
2023/11/18 03:36:12;;;;;;;7.43;5.82;;;5.30;99.90;;;;;;7392441;19;20018;-73
2023/11/18 03:38:42;;;;;;;7.40;5.65;;;5.20;99.90;;;;;;7393267;19;20017;-72
2023/11/18 03:41:13;;;;;;;9.18;6.25;;;5.20;99.90;;;;;;7391579;19;20026;-71
2023/11/18 03:43:47;;;;;;;7.47;6.68;;;5.20;99.90;;;;;;7391276;19;20021;-72
2023/11/18 03:46:19;;;;;;;6.65;5.88;;;5.10;99.90;;;;;;7390537;19;20033;-72
2023/11/18 03:48:49;;;;;;;7.30;6.03;;;5.00;99.90;;;;;;7391151;19;20038;-72
2023/11/18 03:51:19;;;;;;;8.82;6.30;;;5.10;99.90;;;;;;7391193;19;20014;-71
2023/11/18 03:53:49;;;;;;;8.07;6.68;;;5.10;99.90;;;;;;7391282;19;20023;-72
2023/11/18 03:56:20;;;;;;;7.63;6.20;;;5.10;99.90;;;;;;7396020;19;20010;-71
2023/11/18 03:58:53;;;;;;;7.75;6.50;;;5.10;99.90;;;;;;7395465;19;20995;-72
2023/11/18 04:01:23;;;;;;;6.88;6.15;;;5.20;99.90;;;;;;7395349;19;20015;-72
2023/11/18 04:03:53;;;;;;;7.85;6.07;;;5.20;99.90;;;;;;7395512;19;20014;-73
2023/11/18 04:06:24;;;;;;;7.07;5.82;;;5.20;99.90;;;;;;7396325;19;20091;-72
2023/11/18 04:08:54;;;;;;;6.72;5.65;;;5.20;99.90;;;;;;7395089;19;20015;-72
2023/11/18 04:11:24;;;;;;;5.95;5.30;;;5.30;99.90;;;;;;7395927;19;20018;-71
2023/11/18 04:13:57;;;;;;;7.10;5.65;;;5.30;99.90;;;;;;7395323;19;20010;-72
2023/11/18 04:16:27;;;;;;;6.80;5.53;;;5.40;99.90;;;;;;7389565;19;20352;-72
2023/11/18 04:18:57;;;;;;;6.18;5.53;;;5.40;99.90;;;;;;7393556;19;20032;-73
2023/11/18 04:21:27;;;;;;;6.40;5.65;;;5.40;99.90;;;;;;7394455;19;20018;-72
2023/11/18 04:23:57;;;;;;;5.95;5.10;;;5.40;99.90;;;;;;7392839;19;20014;-72
2023/11/18 04:26:27;;;;;;;5.90;5.20;;;5.40;99.90;;;;;;7394933;19;20006;-72
2023/11/18 04:29:00;;;;;;;6.20;5.47;;;5.40;99.90;;;;;;7394457;19;20018;-72
2023/11/18 04:31:31;;;;;;;5.80;4.88;;;5.40;99.90;;;;;;7389340;19;20018;-72
2023/11/18 04:34:01;;;;;;;6.13;5.43;;;5.40;99.90;;;;;;7391584;19;20020;-71
2023/11/18 04:36:31;;;;;;;6.30;4.57;;;5.30;99.90;;;;;;7393654;19;20011;-72
2023/11/18 04:39:02;;;;;;;8.10;5.05;;;5.30;99.90;;;;;;7394122;19;20015;-72
2023/11/18 04:41:33;;;;;;;4.65;3.95;;;5.30;99.90;;;;;;7392881;19;20021;-72
2023/11/18 04:44:06;;;;;;;5.72;4.63;;;5.20;99.90;;;;;;7393933;19;20014;-72
2023/11/18 04:46:38;;;;;;;;;;;5.20;99.90;;;;;;7393195;19;20011;-72
2023/11/18 04:49:08;;;;;;;5.57;4.68;;;5.10;99.90;;;;;;7394177;19;19922;-72
2023/11/18 04:51:38;;;;;;;6.43;5.30;;;5.00;99.90;;;;;;7393111;19;20095;-71
2023/11/18 04:54:08;;;;;;;5.28;4.78;;;5.00;99.90;;;;;;7392336;19;20018;-71
2023/11/18 04:56:41;;;;;;;5.95;5.13;;;4.90;99.90;;;;;;7393615;19;20581;-72
2023/11/18 04:59:17;;;;;;;6.93;6.03;;;4.90;99.90;;;;;;7393655;19;20042;-71
2023/11/18 05:01:47;;;;;;;7.30;6.03;;;4.80;99.90;;;;;;7391195;19;20037;-73
2023/11/18 05:04:17;;;;;;;13.18;6.90;;;4.80;99.90;;;;;;7392982;19;20094;-73
2023/11/18 05:06:48;;;;;;;7.80;6.40;;;4.80;99.90;;;;;;7394189;19;20047;-72
2023/11/18 05:09:18;;;;;;;8.63;6.00;;;4.80;99.90;;;;;;7395141;19;20077;-72
2023/11/18 05:11:48;;;;;;;7.10;5.85;;;4.70;99.90;;;;;;7393650;19;20078;-72
2023/11/18 05:14:21;;;;;;;6.22;5.20;;;4.70;99.90;;;;;;7398010;19;20049;-73
2023/11/18 05:16:51;;;;;;;6.65;5.53;;;4.70;99.90;;;;;;7399606;19;20006;-72
2023/11/18 05:19:21;;;;;;;8.52;5.80;;;4.60;99.90;;;;;;7400680;19;20018;-71
2023/11/18 05:21:51;;;;;;;8.13;5.65;;;4.60;99.90;;;;;;7399870;19;20006;-72
2023/11/18 05:24:21;;;;;;;6.97;5.90;;;4.50;99.90;;;;;;7400014;19;20081;-71
2023/11/18 05:26:52;;;;;;;6.32;5.30;;;4.50;99.90;;;;;;7399408;19;20841;-72
2023/11/18 05:29:25;;;;;;;6.60;5.22;;;4.40;99.90;;;;;;7402258;19;20014;-72
2023/11/18 05:31:55;;;;;;;7.40;5.10;;;4.40;99.90;;;;;;7401057;19;20031;-73
2023/11/18 05:34:25;;;;;;;7.60;5.28;;;4.40;99.90;;;;;;7400330;19;20028;-72
2023/11/18 05:36:57;;;;;;;5.75;4.93;;;4.40;99.90;;;;;;7403883;19;20042;-71
2023/11/18 05:39:30;;;;;;;5.88;4.88;;;4.30;99.90;;;;;;7399717;19;20014;-71
2023/11/18 05:42:00;;;;;;;6.03;5.07;;;4.30;99.90;;;;;;7401668;19;20029;-71
2023/11/18 05:44:37;;;;;;;8.55;5.15;;;4.30;99.90;;;;;;7398066;19;20029;-73
2023/11/18 05:47:08;;;;;;;5.78;5.00;;;4.30;99.90;;;;;;7399581;19;20007;-72
2023/11/18 05:49:38;;;;;;;5.25;4.45;;;4.30;99.90;;;;;;7398074;19;20021;-72
2023/11/18 05:52:09;;;;;;;5.75;4.68;;;4.30;99.90;;;;;;7401464;19;20018;-72
2023/11/18 05:54:39;;;;;;;5.70;4.40;;;4.30;99.90;;;;;;7398068;19;20014;-72
2023/11/18 05:57:09;;;;;;;8.40;5.20;;;4.20;99.90;;;;;;7399993;19;20471;-73
2023/11/18 05:59:42;;;;;;;5.75;4.60;;;4.20;99.90;;;;;;7397545;19;20011;-72
2023/11/18 06:02:17;;;;;;;6.30;4.60;;;4.20;99.90;;;;;;7397109;19;20014;-72
2023/11/18 06:04:49;;;;;;;5.68;4.38;;;4.20;99.90;;;;;;7396390;19;20505;-72
2023/11/18 06:07:19;;;;;;;5.82;4.53;;;4.20;99.90;;;;;;7400459;19;20344;-71
2023/11/18 06:09:49;;;;;;;8.43;4.55;;;4.10;99.90;;;;;;7397545;19;20029;-72
2023/11/18 06:12:20;;;;;;;6.35;5.18;;;4.10;99.90;;;;;;7399685;19;20021;-72
2023/11/18 06:14:52;;;;;;;6.40;5.13;;;4.10;99.90;;;;;;7397054;19;20478;-72
2023/11/18 06:17:23;;;;;;;9.80;5.60;;;4.10;99.90;;;;;;7398070;19;20013;-73
2023/11/18 06:19:53;;;;;;;6.07;4.80;;;4.10;99.90;;;;;;7397451;19;20502;-73
2023/11/18 06:22:24;;;;;;;6.65;4.95;;;4.00;99.90;;;;;;7397804;19;20344;-72
2023/11/18 06:24:55;;;;;;;7.03;5.75;;;4.00;99.90;;;;;;7392299;19;20014;-71
2023/11/18 06:27:25;;;;;;;9.57;6.25;;;4.00;99.90;;;;;;7394230;19;20015;-72
2023/11/18 06:29:57;;;;;;;8.75;5.38;;;4.00;99.90;;;;;;7395460;19;20014;-72
2023/11/18 06:32:28;;;;;;;7.63;6.03;;;4.10;99.90;;;;;;7399422;19;20030;-72
2023/11/18 06:34:58;;;;;;;7.68;5.78;;;4.20;99.90;;;;;;7392889;19;20458;-72
2023/11/18 06:37:34;;;;;;;8.52;6.28;;;4.30;99.90;;;;;;7396614;19;20031;-72
2023/11/18 06:40:15;;;;;;;8.18;5.93;;;4.30;99.90;;;;;;7396589;19;20073;-71
2023/11/18 06:42:47;;;;;;;6.72;5.72;;;4.40;99.90;;;;;;7399109;19;20018;-73
2023/11/18 06:45:21;;;;;;;7.13;5.97;;;4.30;99.90;;;;;;7396771;19;20018;-72
2023/11/18 06:47:52;;;;;;;11.20;6.57;;;4.30;99.90;;;;;;7398384;19;20010;-72
2023/11/18 06:50:24;;;;;;;6.95;6.10;;;4.30;99.90;;;;;;7397448;19;20018;-72
2023/11/18 06:52:54;;;;;;;7.63;6.22;;;4.20;99.90;;;;;;7397567;19;20094;-72
2023/11/18 06:55:26;;;;;;;7.95;6.07;;;4.30;99.90;;;;;;7395517;19;20018;-72
2023/11/18 06:57:58;;;;;;;7.50;5.18;;;4.20;99.90;;;;;;7396904;19;20047;-71
2023/11/18 07:00:33;;;;;;;;;;;4.20;99.90;;;;;;7399106;19;20023;-72
2023/11/18 07:03:03;;;;;;;6.82;5.50;;;4.30;99.90;;;;;;7394709;19;20260;-72
2023/11/18 07:05:33;;;;;;;6.50;5.45;;;4.30;99.90;;;;;;7394937;19;20139;-72
2023/11/18 07:08:04;;;;;;;7.88;5.75;;;4.30;99.90;;;;;;7397322;19;20018;-72
2023/11/18 07:10:34;;;;;;;6.60;5.78;;;4.30;99.90;;;;;;7396567;19;20090;-72
2023/11/18 07:13:05;;;;;;;6.60;5.38;;;4.40;99.90;;;;;;7397976;19;20022;-72
2023/11/18 07:15:38;;;;;;;8.98;5.55;;;4.40;99.90;;;;;;7394205;19;20019;-72
2023/11/18 07:18:08;;;;;;;6.95;5.40;;;4.40;99.90;;;;;;7396486;19;20014;-72
2023/11/18 07:20:39;;;;;;;8.60;5.47;;;4.50;99.90;;;;;;7396485;19;20014;-72
2023/11/18 07:23:09;;;;;;;6.95;5.38;;;4.60;99.90;;;;;;7395558;19;20014;-72
2023/11/18 07:25:39;;;;;;;9.43;5.95;;;4.70;99.90;;;;;;7393370;19;20114;-72
2023/11/18 07:28:09;;;;;;;7.53;5.88;;;4.70;99.90;;;;;;7394562;19;20082;-72
2023/11/18 07:30:42;;;;;;;9.68;5.57;;;4.80;99.90;;;;;;7397664;19;20232;-72
2023/11/18 07:33:12;;;;;;;7.85;5.97;;;4.90;99.90;;;;;;7396135;19;20014;-72
2023/11/18 07:35:42;;;;;;;7.57;5.10;;;5.00;99.90;;;;;;7390069;19;20012;-73
2023/11/18 07:38:13;;;;;;;7.47;5.18;;;5.00;99.90;;;;;;7394192;19;20026;-73
2023/11/18 07:40:45;;;;;;;5.45;4.93;;;5.10;99.90;;;;;;7397194;19;20009;-72
2023/11/18 07:43:16;;;;;;;7.18;5.20;;;5.10;99.90;;;;;;7397142;19;20021;-73
2023/11/18 07:45:50;;;;;;;6.60;5.57;;;5.20;99.90;;;;;;7394215;19;20018;-71
2023/11/18 07:48:20;;;;;;;6.97;5.10;;;5.20;99.90;;;;;;7396285;19;20046;-72
2023/11/18 07:50:50;;;;;;;6.80;5.47;;;5.30;99.90;;;;;;7393530;19;20486;-72
2023/11/18 07:53:20;;;;;;;7.78;5.38;;;5.40;99.90;;;;;;7396202;19;20010;-72
2023/11/18 07:55:51;;;;;;;5.63;4.75;;;5.50;99.90;;;;;;7391319;19;20467;-73
2023/11/18 07:58:23;;;;;;;8.18;5.05;;;5.60;99.90;;;;;;7393630;19;20018;-73
2023/11/18 08:00:56;;;;;;;7.72;5.30;;;5.60;99.90;;;;;;7395491;19;20068;-72
2023/11/18 08:03:27;;;;;;;8.55;5.45;;;5.70;99.90;;;;;;7394107;19;20022;-72
2023/11/18 08:05:58;;;;;;;9.00;5.20;;;5.70;99.90;;;;;;7393566;19;20470;-73
2023/11/18 08:08:28;;;;;;;8.30;5.13;;;5.70;98.80;;;;;;7397997;19;20343;-73
2023/11/18 08:10:58;;;;;;;7.32;5.32;;;5.70;97.20;;;;;;7399471;19;20007;-73
2023/11/18 08:13:28;;;;;;;8.18;5.40;;;5.70;93.30;;;;;;7396575;19;20010;-73
2023/11/18 08:16:01;;;;;;;6.13;5.32;;;5.80;81.70;;;;;;7394430;19;20022;-72
2023/11/18 08:18:31;;;;;;;6.70;5.13;;;5.80;76.70;;;;;;7393035;19;20021;-73
2023/11/18 08:21:02;;;;;;;8.65;5.85;;;5.90;71.10;;;;;;7394049;19;20354;-72
2023/11/18 08:23:32;;;;;;;9.07;5.90;;;5.80;63.80;;;;;;7392591;19;20019;-73
2023/11/18 08:26:03;;;;;;;7.55;5.97;;;5.80;48.70;;;;;;7394499;19;20053;-73
2023/11/18 08:28:33;;;;;;;10.88;5.65;;;5.90;46.90;;;;;;7394197;19;20081;-73
2023/11/18 08:31:06;;;;;;;6.60;5.85;;;5.90;45.70;;;;;;7393425;19;20494;-72
2023/11/18 08:33:37;;;;;;;8.25;5.70;;;6.00;49.60;;;;;;7394952;19;20018;-72
2023/11/18 08:36:08;;;;;;;7.47;6.10;;;6.10;53.10;;;;;;7395001;19;20011;-72
2023/11/18 08:38:38;;;;;;;7.43;5.60;;;6.10;47.00;;;;;;7395356;19;20010;-72
2023/11/18 08:41:09;;;;;;;6.57;5.50;;;6.10;44.50;;;;;;7395023;19;20014;-71
2023/11/18 08:43:40;;;;;;;6.78;5.30;;;6.10;44.30;;;;;;7393300;19;20006;-72
2023/11/18 08:46:13;;;;;;;7.38;5.72;;;6.10;33.70;;;;;;7393048;19;20007;-72
2023/11/18 08:48:44;;;;;;;6.97;5.20;;;6.10;34.70;;;;;;7402764;19;20018;-72
2023/11/18 08:51:16;;;;;;;6.63;5.47;;;6.20;39.50;;;;;;7402281;19;20035;-73
2023/11/18 08:53:47;;;;;;;7.32;5.90;;;6.30;39.80;;;;;;7400252;19;20084;-72
2023/11/18 08:56:19;;;;;;;7.78;5.30;;;6.30;36.30;;;;;;7399216;19;20010;-73
2023/11/18 08:58:51;;;;;;;6.82;5.68;;;6.40;33.20;;;;;;7399796;19;20046;-73
2023/11/18 09:01:31;;;;;;;7.85;5.38;;;6.50;29.30;;;;;;7402160;19;20343;-73
2023/11/18 09:04:01;;;;;;;7.75;5.10;;;6.50;21.40;;;;;;7399146;19;20022;-71
2023/11/18 09:06:33;;;;;;;7.93;4.68;;;6.50;14.00;;;;;;7399320;19;20022;-73
2023/11/18 09:09:09;;;;;;;5.70;4.80;;;6.60;5.60;;;;;;7401280;19;20014;-72
2023/11/18 09:11:41;;;;;;;7.03;4.32;;;6.70;1.00;;;;;;7401194;19;20050;-72
2023/11/18 09:14:11;;;;;;;7.80;4.68;;;6.70;1.00;;;;;;7397801;19;20014;-72
2023/11/18 09:16:44;;;;;;;6.05;4.35;;;6.80;1.00;;;;;;7401091;19;20016;-72
2023/11/18 09:19:14;;;;;;;5.28;4.57;;;6.80;1.00;;;;;;7400259;19;20014;-72
2023/11/18 09:21:45;;;;;;;8.55;5.47;;;7.00;1.00;;;;;;7401255;19;20018;-73
2023/11/18 09:24:19;;;;;;;5.97;4.60;;;7.00;1.00;;;;;;7396744;19;20018;-72
2023/11/18 09:26:50;;;;;;;5.57;4.93;;;7.10;1.00;;;;;;7400201;19;20059;-71
2023/11/18 09:29:23;;;;;;;7.07;5.20;;;7.30;1.00;;;;;;7396189;19;20320;-72
2023/11/18 09:31:58;;;;;;;5.15;4.50;;;7.50;1.00;;;;;;7398836;19;20006;-72
2023/11/18 09:34:33;;;;;;;5.28;4.50;;;7.30;1.00;;;;;;7398272;19;20018;-72
2023/11/18 09:37:04;;;;;;;10.38;4.78;;;7.40;1.00;;;;;;7401136;19;20007;-72
2023/11/18 09:39:45;;;;;;;6.10;4.50;;;7.60;1.00;;;;;;7396950;19;20007;-72
2023/11/18 09:42:18;;;;;;;8.15;4.85;;;7.70;1.00;;;;;;7399095;19;20019;-73
2023/11/18 09:44:50;;;;;;;9.45;4.35;;;7.90;1.00;;;;;;7398364;19;20014;-72
2023/11/18 09:47:24;;;;;;;5.10;3.80;;;7.90;1.00;;;;;;7400042;19;20010;-72
2023/11/18 09:49:59;;;;;;;6.97;3.90;;;7.90;1.00;;;;;;7400177;19;20031;-72
2023/11/18 09:52:31;;;;;;;6.45;4.00;;;7.80;1.00;;;;;;7400195;19;20070;-73
2023/11/18 09:55:14;;;;;;;5.55;4.15;;;7.90;1.00;;;;;;7396894;19;20038;-73
2023/11/18 09:57:57;;;;;;;6.28;4.43;;;8.00;1.00;;;;;;7399981;19;20010;-73
2023/11/18 10:00:32;;;;;;;6.03;3.75;;;8.20;1.00;;;;;;7398157;19;20053;-72
2023/11/18 10:03:08;;;;;;;8.00;4.32;;;8.00;1.00;;;;;;7398829;19;20014;-72
2023/11/18 10:05:40;;;;;;;7.97;3.80;;;8.20;1.00;;;;;;7396796;19;20011;-72
2023/11/18 10:08:10;;;;;;;5.43;3.88;;;8.40;1.00;;;;;;7398609;19;20011;-72
2023/11/18 10:10:45;;;;;;;6.13;3.67;;;8.40;1.00;;;;;;7400108;19;20361;-73
2023/11/18 10:13:22;;;;;;;9.07;3.33;;;8.40;1.00;;;;;;7398525;19;20086;-74
2023/11/18 10:15:57;;;;;;;5.60;3.97;;;8.40;1.00;;;;;;7395473;19;20015;-72
2023/11/18 10:18:34;;;;;;;3.20;2.75;;;8.40;1.00;;;;;;7399866;19;20010;-72
2023/11/18 10:21:07;;;;;;;6.45;3.05;;;8.40;1.00;;;;;;7398047;19;20078;-72
2023/11/18 10:23:38;;;;;;;4.10;3.00;;;8.40;1.00;;;;;;7398126;19;20081;-72
2023/11/18 10:26:08;;;;;;;3.92;2.88;;;8.30;1.00;;;;;;7397154;19;20021;-73
2023/11/18 10:28:39;;;;;;;4.97;3.67;;;8.40;1.00;;;;;;7396549;19;20136;-73
2023/11/18 10:31:10;;;;;;;4.20;3.20;;;8.50;1.00;;;;;;7398395;19;20014;-73
2023/11/18 10:33:45;;;;;;;3.28;2.92;;;8.40;1.00;;;;;;7398962;19;20018;-73
2023/11/18 10:36:26;;;;;;;5.80;3.45;;;8.30;1.00;;;;;;7395572;19;20021;-72
2023/11/18 10:39:00;;;;;;;3.33;3.03;;;8.50;1.00;;;;;;7396595;19;20018;-73
2023/11/18 10:41:30;;;;;;;5.85;3.38;;;8.50;1.00;;;;;;7396922;19;20077;-73
2023/11/18 10:44:13;;;;;;;4.65;3.22;;;8.60;1.00;;;;;;7395247;19;20081;-72
2023/11/18 10:46:56;;;;;;;4.07;3.03;;;8.60;1.00;;;;;;7397908;19;20471;-73
2023/11/18 10:49:36;;;;;;;5.05;3.00;;;8.60;1.00;;;;;;7400161;19;20494;-73
2023/11/18 10:52:08;;;;;;;7.75;3.58;;;8.60;1.00;;;;;;7396638;19;20019;-73
2023/11/18 10:54:40;;;;;;;5.50;2.88;;;8.60;1.00;;;;;;7396522;19;20039;-73
2023/11/18 10:57:13;;;;;;;6.90;3.45;;;8.60;1.00;;;;;;7396328;19;20014;-73
2023/11/18 11:00:02;;;;;;;3.67;2.63;;;8.80;1.00;;;;;;7397399;19;20051;-73
2023/11/18 11:02:39;;;;;;;4.43;2.67;;;8.80;1.00;;;;;;7397739;19;20473;-72
2023/11/18 11:05:15;;;;;;;6.40;2.80;;;8.60;1.00;;;;;;7396295;19;20043;-73
2023/11/18 11:07:51;;;;;;;3.60;2.53;;;8.60;1.00;;;;;;7397444;19;20064;-73
2023/11/18 11:10:28;;;;;;;4.07;2.65;;;8.50;1.00;;;;;;7398152;19;20073;-73
2023/11/18 11:13:02;;;;;;;4.55;2.83;;;8.50;1.00;;;;;;7395804;19;20491;-73
2023/11/18 11:15:34;;;;;;;5.50;2.65;;;8.60;1.00;;;;;;7394535;19;20002;-73
2023/11/18 11:18:27;;;;;;;4.47;2.83;;;8.70;1.00;;;;;;7397559;19;20010;-73
2023/11/18 11:21:15;;;;;;;7.00;2.85;;;8.70;1.00;;;;;;7395311;19;20466;-72
2023/11/18 11:23:54;;;;;;;5.85;2.78;;;8.70;1.00;;;;;;7396008;19;20018;-72
2023/11/18 11:26:40;;;;;;;3.95;2.63;;;8.70;1.00;;;;;;7396355;19;20013;-72
2023/11/18 11:29:28;;;;;;;4.05;3.03;;;8.70;1.00;;;;;;7396844;19;20518;-71
2023/11/18 11:32:13;;;;;;;2.95;2.40;;;8.60;1.00;;;;;;7395278;19;20478;-73
2023/11/18 11:34:51;;;;;;;4.43;2.40;;;8.70;1.00;;;;;;7394926;19;20015;-72
2023/11/18 11:37:27;;;;;;;5.32;2.92;;;8.70;1.00;;;;;;7395489;19;20010;-72
2023/11/18 11:40:04;;;;;;;4.53;3.00;;;8.80;1.00;;;;;;7394654;19;20010;-72
2023/11/18 11:42:35;;;;;;;5.13;2.50;;;8.70;1.00;;;;;;7392766;19;20078;-72
2023/11/18 11:45:19;;;;;;;3.33;2.42;;;8.90;1.00;;;;;;7391146;19;20010;-73
2023/11/18 11:47:52;;;;;;;3.92;2.47;;;8.70;1.00;;;;;;7395850;19;20010;-72
2023/11/18 11:50:31;;;;;;;5.18;2.78;;;8.70;1.00;;;;;;7396883;19;20018;-72
2023/11/18 11:53:08;;;;;;;2.72;2.40;;;8.70;1.00;;;;;;7393848;19;20016;-73
2023/11/18 11:55:47;;;;;;;3.83;2.63;;;8.70;1.00;;;;;;7393777;19;20436;-73
2023/11/18 11:58:28;;;;;;;6.03;2.85;;;8.80;1.00;;;;;;7394493;19;20478;-72
2023/11/18 12:00:58;;;;;;;3.75;2.50;;;8.60;1.00;;;;;;7393381;19;20412;-72
2023/11/18 12:03:35;;;;;;;6.30;2.70;;;8.60;1.00;;;;;;7396621;19;20010;-73
2023/11/18 12:06:11;;;;;;;3.55;2.63;;;8.70;1.00;;;;;;7395042;19;20024;-73
2023/11/18 12:08:51;;;;;;;5.78;3.20;;;8.80;1.00;;;;;;7395823;19;20825;-74
2023/11/18 12:11:22;;;;;;;3.70;2.13;;;8.80;1.00;;;;;;7393266;19;20034;-73
2023/11/18 12:14:12;;;;;;;3.33;2.00;;;8.90;1.00;;;;;;7394640;19;20014;-73
2023/11/18 12:17:07;;;;;;;4.60;2.10;;;8.90;1.00;;;;;;7394982;19;20011;-73
2023/11/18 12:19:49;;;;;;;4.17;2.17;;;8.90;1.00;;;;;;7395333;19;20007;-73
2023/11/18 12:22:29;;;;;;;3.85;2.00;;;8.90;1.00;;;;;;7395975;19;20038;-73
2023/11/18 12:25:32;;;;;;;2.65;1.90;;;8.80;1.00;;;;;;7399895;19;20015;-74
2023/11/18 12:28:14;;;;;;;4.82;2.50;;;8.60;1.00;;;;;;7402897;19;20447;-73
2023/11/18 12:30:55;;;;;;;5.15;2.50;;;8.70;1.00;;;;;;7403361;19;20007;-74
2023/11/18 12:33:28;;;;;;;4.13;1.80;;;8.80;1.00;;;;;;7401368;19;20014;-73
2023/11/18 12:36:32;;;;;;;5.65;2.30;;;8.70;1.00;;;;;;7399802;19;20435;-73
2023/11/18 12:39:33;;;;;;;4.05;2.67;;;8.70;1.00;;;;;;7403180;19;20003;-73
2023/11/18 12:42:11;;;;;;;3.70;2.35;;;8.80;1.00;;;;;;7399668;19;20123;-73
2023/11/18 12:45:08;;;;;;;4.75;2.45;;;8.80;1.00;;;;;;7398969;19;20010;-74
2023/11/18 12:47:40;;;;;;;2.75;2.20;;;8.70;1.00;;;;;;7400777;19;20023;-73
2023/11/18 12:50:17;;;;;;;3.95;2.03;;;8.70;1.00;;;;;;7400363;19;20014;-74
2023/11/18 12:52:49;;;;;;;4.07;2.47;;;8.80;1.00;;;;;;7402480;19;20020;-73
2023/11/18 12:55:21;;;;;;;5.65;2.33;;;8.70;1.00;;;;;;7398997;19;20324;-73
2023/11/18 12:57:53;;;;;;;5.55;2.13;;;8.70;1.00;;;;;;7403008;19;20014;-73
2023/11/18 13:00:34;;;;;;;2.60;2.00;;;8.70;1.00;;;;;;7400166;19;20039;-72
2023/11/18 13:03:10;;;;;;;4.72;2.03;;;8.60;1.00;;;;;;7398629;19;20010;-73
2023/11/18 13:05:40;;;;;;;3.13;1.80;;;8.60;1.00;;;;;;7399405;19;20006;-73
2023/11/18 13:08:10;;;;;;;4.85;2.25;;;8.60;1.00;;;;;;7400176;19;20011;-73
2023/11/18 13:10:40;;;;;;;4.65;1.65;;;8.50;1.00;;;;;;7400192;19;20010;-73
2023/11/18 13:13:13;;;;;;;7.05;1.88;;;8.50;1.00;;;;;;7400728;19;20014;-72
2023/11/18 13:15:46;;;;;;;3.75;2.03;;;8.50;1.00;;;;;;7398052;19;20003;-73
2023/11/18 13:18:16;;;;;;;2.28;1.65;;;8.50;1.00;;;;;;7401130;19;20081;-72
2023/11/18 13:20:57;;;;;;;3.25;1.73;;;8.50;1.00;;;;;;7399899;19;20014;-72
2023/11/18 13:23:30;;;;;;;6.07;2.00;;;8.50;1.00;;;;;;7398544;19;20081;-72
2023/11/18 13:26:05;;;;;;;8.95;2.40;;;8.40;1.00;;;;;;7401389;19;20481;-73
2023/11/18 13:28:35;;;;;;;5.80;1.90;;;8.50;1.00;;;;;;7401678;19;20087;-73